Time;durP1;ratioP1;P1;durP2;ratioP2;P2;SDS_P1;SDS_P2;PMS_P1;PMS_P2;Temp;Humidity;BMP_temperature;BMP_pressure;BME280_temperature;BME280_humidity;BME280_pressure;Samples;Min_cycle;Max_cycle;Signal;HPM_P1;HPM_P2
2023/08/27 00:01:25;;;;;;;4.85;2.25;;;18.50;99.90;;;;;;5019453;28;20057;-66
2023/08/27 00:03:51;;;;;;;5.03;2.38;;;18.40;99.90;;;;;;5018745;28;20064;-66
2023/08/27 00:06:16;;;;;;;4.25;2.72;;;18.40;99.90;;;;;;5018445;28;20034;-66
2023/08/27 00:08:42;;;;;;;4.38;2.53;;;18.40;99.90;;;;;;5018494;28;20026;-66
2023/08/27 00:11:07;;;;;;;6.57;2.00;;;18.40;99.90;;;;;;5018458;28;20025;-66
2023/08/27 00:13:33;;;;;;;2.97;2.13;;;18.30;99.90;;;;;;5019023;28;20030;-66
2023/08/27 00:15:59;;;;;;;5.30;2.15;;;18.20;99.90;;;;;;5018532;28;20021;-65
2023/08/27 00:18:25;;;;;;;4.60;1.67;;;18.20;99.90;;;;;;5017955;28;20026;-65
2023/08/27 00:20:50;;;;;;;1.92;1.73;;;18.20;99.90;;;;;;5018496;28;20049;-66
2023/08/27 00:23:16;;;;;;;7.55;2.42;;;18.30;99.90;;;;;;5018230;28;20060;-65
2023/08/27 00:25:45;;;;;;;3.42;2.40;;;18.30;99.90;;;;;;5018293;28;20052;-66
2023/08/27 00:28:12;;;;;;;5.80;2.42;;;18.30;99.90;;;;;;5018062;28;20026;-66
2023/08/27 00:30:38;;;;;;;4.20;2.08;;;18.30;99.90;;;;;;5018749;28;20026;-65
2023/08/27 00:33:04;;;;;;;7.75;2.10;;;18.20;99.90;;;;;;5017882;28;20037;-65
2023/08/27 00:35:29;;;;;;;5.13;2.00;;;18.10;99.90;;;;;;5018295;28;20022;-66
2023/08/27 00:37:55;;;;;;;4.03;2.20;;;18.10;99.90;;;;;;5019090;28;20026;-66
2023/08/27 00:40:20;;;;;;;3.95;2.30;;;18.00;99.90;;;;;;5017727;28;20021;-66
2023/08/27 00:42:46;;;;;;;5.97;2.25;;;17.90;99.90;;;;;;5018493;28;20026;-66
2023/08/27 00:45:11;;;;;;;3.05;1.90;;;17.80;99.90;;;;;;5017632;28;20029;-66
2023/08/27 00:47:38;;;;;;;2.92;2.03;;;17.70;99.90;;;;;;5018664;28;20025;-66
2023/08/27 00:50:07;;;;;;;2.97;2.03;;;17.80;99.90;;;;;;5017800;28;20042;-66
2023/08/27 00:52:33;;;;;;;3.17;2.13;;;17.90;99.90;;;;;;5018509;28;20076;-66
2023/08/27 00:55:01;;;;;;;3.30;1.83;;;17.90;99.90;;;;;;5017924;28;20025;-66
2023/08/27 00:57:27;;;;;;;3.83;2.17;;;17.80;99.90;;;;;;5018162;28;20025;-66
2023/08/27 00:59:57;;;;;;;4.97;2.05;;;17.80;99.90;;;;;;5017410;28;20024;-66
2023/08/27 01:02:22;;;;;;;4.07;1.85;;;17.80;99.90;;;;;;5017340;28;20053;-66
2023/08/27 01:04:48;;;;;;;3.03;2.08;;;17.90;99.90;;;;;;5017357;28;20030;-66
2023/08/27 01:07:31;;;;;;;4.93;1.80;;;17.90;99.90;;;;;;5017918;28;20030;-66
2023/08/27 01:10:13;;;;;;;7.25;1.88;;;17.90;99.90;;;;;;5017418;28;20120;-66
2023/08/27 01:12:50;;;;;;;5.40;2.20;;;17.90;99.90;;;;;;5017870;28;20079;-66
2023/08/27 01:15:17;;;;;;;4.07;1.90;;;17.90;99.90;;;;;;5017646;28;20026;-66
2023/08/27 01:17:42;;;;;;;4.93;2.00;;;17.80;99.90;;;;;;5017245;28;20018;-66
2023/08/27 01:20:09;;;;;;;4.22;1.92;;;17.80;99.90;;;;;;5017005;28;20042;-66
2023/08/27 01:22:35;;;;;;;3.95;1.88;;;17.80;99.90;;;;;;5017210;28;20074;-66
2023/08/27 01:25:00;;;;;;;5.65;2.28;;;17.80;99.90;;;;;;5017911;28;20098;-66
2023/08/27 01:27:34;;;;;;;4.88;2.60;;;17.90;99.90;;;;;;5017823;28;20033;-66
2023/08/27 01:30:23;;;;;;;3.85;1.73;;;17.90;99.90;;;;;;5016144;28;20034;-66
2023/08/27 01:32:57;;;;;;;4.25;2.25;;;17.90;99.90;;;;;;5017988;28;20033;-66
2023/08/27 01:35:24;;;;;;;4.22;1.70;;;17.90;99.90;;;;;;5016949;28;20026;-66
2023/08/27 01:37:49;;;;;;;4.18;2.40;;;17.80;99.90;;;;;;5016782;28;20021;-66
2023/08/27 01:40:17;;;;;;;3.97;1.85;;;17.80;99.90;;;;;;5016873;28;20029;-66
2023/08/27 01:42:43;;;;;;;3.13;1.92;;;17.90;99.90;;;;;;5017913;28;20025;-66
2023/08/27 01:45:10;;;;;;;5.70;2.38;;;17.80;99.90;;;;;;5017262;28;20076;-65
2023/08/27 01:47:35;;;;;;;2.42;1.98;;;17.70;99.90;;;;;;5017707;28;20032;-66
2023/08/27 01:50:01;;;;;;;3.08;2.22;;;17.60;99.90;;;;;;5017375;28;20125;-66
2023/08/27 01:52:26;;;;;;;5.93;2.13;;;17.50;99.90;;;;;;5017281;28;20034;-66
2023/08/27 01:54:52;;;;;;;2.85;1.83;;;17.60;99.90;;;;;;5017434;28;20022;-66
2023/08/27 01:57:17;;;;;;;2.88;1.85;;;17.70;99.90;;;;;;5017469;28;20037;-66
2023/08/27 01:59:43;;;;;;;3.67;1.95;;;17.80;99.90;;;;;;5017169;28;20113;-66
2023/08/27 02:02:08;;;;;;;4.47;2.08;;;17.70;99.90;;;;;;5017472;28;20037;-66
2023/08/27 02:04:34;;;;;;;2.95;1.85;;;17.80;99.90;;;;;;5016618;28;20032;-65
2023/08/27 02:06:59;;;;;;;4.65;2.10;;;17.70;99.90;;;;;;5017531;28;20022;-65
2023/08/27 02:09:25;;;;;;;4.75;2.42;;;17.70;99.90;;;;;;5016388;28;20109;-66
2023/08/27 02:11:51;;;;;;;3.58;2.30;;;17.70;99.90;;;;;;5016243;28;20044;-66
2023/08/27 02:14:17;;;;;;;7.35;2.35;;;17.80;99.90;;;;;;5017051;28;20097;-66
2023/08/27 02:16:42;;;;;;;5.07;2.00;;;17.80;99.90;;;;;;5016412;28;20018;-65
2023/08/27 02:19:08;;;;;;;2.72;1.80;;;17.60;99.90;;;;;;5016199;28;20022;-66
2023/08/27 02:21:33;;;;;;;4.50;2.05;;;17.40;99.90;;;;;;5017255;28;20022;-65
2023/08/27 02:24:00;;;;;;;5.38;2.60;;;17.30;99.90;;;;;;5017612;28;20032;-66
2023/08/27 02:26:26;;;;;;;6.50;2.30;;;17.20;99.90;;;;;;5017174;28;20099;-66
2023/08/27 02:28:52;;;;;;;7.38;2.95;;;17.30;99.90;;;;;;5016546;28;20030;-66
2023/08/27 02:31:17;;;;;;;3.80;2.00;;;17.30;99.90;;;;;;5017097;28;20117;-65
2023/08/27 02:33:46;;;;;;;7.10;1.95;;;17.40;99.90;;;;;;5016652;28;20022;-66
2023/08/27 02:36:12;;;;;;;4.65;1.85;;;17.50;99.90;;;;;;5017074;28;20049;-66
2023/08/27 02:38:37;;;;;;;2.38;1.77;;;17.50;99.90;;;;;;5016954;28;20057;-66
2023/08/27 02:41:03;;;;;;;4.32;2.00;;;17.50;99.90;;;;;;5017864;28;20094;-65
2023/08/27 02:43:28;;;;;;;3.88;1.95;;;17.60;99.90;;;;;;5020069;28;20022;-66
2023/08/27 02:45:54;;;;;;;6.57;2.05;;;17.70;99.90;;;;;;5019957;28;20037;-66
2023/08/27 02:48:19;;;;;;;3.42;2.22;;;17.70;99.90;;;;;;5019769;28;20034;-66
2023/08/27 02:50:45;;;;;;;6.53;1.60;;;17.70;99.90;;;;;;5045017;22;20038;-65
2023/08/27 02:53:10;;;;;;;5.97;2.08;;;17.70;99.90;;;;;;5020583;28;20030;-65
2023/08/27 02:55:36;;;;;;;4.50;2.00;;;17.70;99.90;;;;;;5019711;28;20017;-65
2023/08/27 02:58:02;;;;;;;4.45;2.20;;;17.70;99.90;;;;;;5020333;28;20113;-65
2023/08/27 03:00:28;;;;;;;4.10;1.85;;;17.60;99.90;;;;;;5019563;28;20057;-65
2023/08/27 03:02:53;;;;;;;20.20;2.65;;;17.50;99.90;;;;;;5019899;28;20026;-65
2023/08/27 03:05:19;;;;;;;2.03;1.52;;;17.50;99.90;;;;;;5019561;28;20030;-65
2023/08/27 03:07:45;;;;;;;4.30;2.10;;;17.40;99.90;;;;;;5019607;28;20022;-65
2023/08/27 03:10:10;;;;;;;2.45;2.08;;;17.40;99.90;;;;;;5019472;28;20026;-65
2023/08/27 03:12:36;;;;;;;2.45;1.73;;;17.40;99.90;;;;;;5020374;28;20057;-65
2023/08/27 03:15:02;;;;;;;5.15;1.52;;;17.40;99.90;;;;;;5020081;28;20053;-65
2023/08/27 03:17:28;;;;;;;3.40;1.85;;;17.40;99.90;;;;;;5019329;28;20022;-65
2023/08/27 03:19:53;;;;;;;3.00;1.77;;;17.40;99.90;;;;;;5019723;28;20090;-65
2023/08/27 03:22:19;;;;;;;3.50;1.77;;;17.30;99.90;;;;;;5019564;28;20029;-65
2023/08/27 03:24:44;;;;;;;3.78;2.50;;;17.40;99.90;;;;;;5019308;28;20112;-65
2023/08/27 03:27:10;;;;;;;4.75;1.98;;;17.40;99.90;;;;;;5019251;28;20053;-65
2023/08/27 03:29:35;;;;;;;5.75;2.35;;;17.40;99.90;;;;;;5019127;28;20159;-65
2023/08/27 03:32:01;;;;;;;2.15;1.90;;;17.50;99.90;;;;;;5019072;28;20026;-65
2023/08/27 03:34:26;;;;;;;1.65;1.50;;;17.40;99.90;;;;;;5019409;28;20113;-65
2023/08/27 03:36:52;;;;;;;5.45;1.90;;;17.40;99.90;;;;;;5019064;28;20096;-65
2023/08/27 03:39:17;;;;;;;5.20;1.90;;;17.20;99.90;;;;;;5019892;28;20076;-65
2023/08/27 03:41:44;;;;;;;4.55;2.38;;;17.20;99.90;;;;;;5019806;28;20022;-65
2023/08/27 03:44:10;;;;;;;6.55;2.10;;;17.10;99.90;;;;;;5019014;28;20080;-65
2023/08/27 03:46:36;;;;;;;5.93;2.10;;;17.00;99.90;;;;;;5019740;28;20025;-65
2023/08/27 03:49:02;;;;;;;3.33;2.03;;;16.90;99.90;;;;;;5018747;28;20053;-65
2023/08/27 03:51:28;;;;;;;6.10;1.92;;;16.90;99.90;;;;;;5020022;28;20022;-65
2023/08/27 03:54:00;;;;;;;3.38;2.00;;;17.00;99.90;;;;;;5018784;28;20095;-65
2023/08/27 03:56:26;;;;;;;7.68;2.15;;;16.90;99.90;;;;;;5018775;28;20076;-65
2023/08/27 03:58:52;;;;;;;9.05;2.60;;;16.90;99.90;;;;;;5019613;28;20026;-65
2023/08/27 04:01:17;;;;;;;2.90;2.10;;;17.00;99.90;;;;;;5018554;28;20105;-65
2023/08/27 04:03:43;;;;;;;3.50;2.30;;;17.20;99.90;;;;;;5018730;28;20197;-65
2023/08/27 04:06:10;;;;;;;2.33;1.75;;;17.10;99.90;;;;;;5018373;28;20037;-65
2023/08/27 04:08:36;;;;;;;2.58;2.03;;;17.10;99.90;;;;;;5019651;28;20041;-65
2023/08/27 04:11:01;;;;;;;3.75;1.90;;;17.10;99.90;;;;;;5019142;28;20030;-65
2023/08/27 04:13:27;;;;;;;2.65;1.80;;;16.90;99.90;;;;;;5018719;28;20029;-65
2023/08/27 04:16:03;;;;;;;6.15;2.03;;;16.80;99.90;;;;;;5018379;28;20026;-65
2023/08/27 04:18:29;;;;;;;3.47;1.67;;;16.80;99.90;;;;;;5019729;28;20025;-65
2023/08/27 04:20:56;;;;;;;5.60;1.70;;;16.90;99.90;;;;;;5019082;28;20021;-65
2023/08/27 04:23:21;;;;;;;3.45;2.10;;;17.00;99.90;;;;;;5018449;28;20022;-65
2023/08/27 04:25:47;;;;;;;5.35;2.13;;;17.10;99.90;;;;;;5018021;28;20037;-65
2023/08/27 04:28:14;;;;;;;8.75;2.38;;;17.00;99.90;;;;;;5018097;28;20029;-65
2023/08/27 04:30:40;;;;;;;4.53;2.58;;;17.00;99.90;;;;;;5019076;28;20037;-65
2023/08/27 04:33:06;;;;;;;3.97;1.70;;;16.90;99.90;;;;;;5017889;28;20033;-65
2023/08/27 04:35:32;;;;;;;3.47;1.90;;;16.80;99.90;;;;;;5018814;28;20033;-65
2023/08/27 04:37:57;;;;;;;4.80;2.00;;;16.90;99.90;;;;;;5018894;28;20018;-65
2023/08/27 04:40:23;;;;;;;4.90;2.20;;;16.70;99.90;;;;;;5017851;28;20045;-65
2023/08/27 04:42:49;;;;;;;8.98;2.38;;;16.50;99.90;;;;;;5018618;28;20069;-65
2023/08/27 04:45:14;;;;;;;4.97;2.15;;;16.50;99.90;;;;;;5018184;28;20079;-65
2023/08/27 04:47:41;;;;;;;3.28;2.13;;;16.40;99.90;;;;;;5018009;28;20026;-65
2023/08/27 04:50:07;;;;;;;8.45;1.85;;;16.50;99.90;;;;;;5018752;28;20037;-65
2023/08/27 04:52:34;;;;;;;7.35;3.10;;;16.60;99.90;;;;;;5018524;28;20056;-65
2023/08/27 04:55:00;;;;;;;4.10;2.22;;;16.60;99.90;;;;;;5017637;28;20026;-65
2023/08/27 04:57:25;;;;;;;2.88;1.90;;;16.70;99.90;;;;;;5018694;28;20076;-65
2023/08/27 04:59:51;;;;;;;2.17;1.95;;;16.70;99.90;;;;;;5018989;28;20030;-65
2023/08/27 05:02:16;;;;;;;3.13;1.80;;;16.70;99.90;;;;;;5018361;28;20056;-65
2023/08/27 05:04:43;;;;;;;5.72;2.33;;;16.70;99.90;;;;;;5017261;28;20022;-65
2023/08/27 05:07:10;;;;;;;3.28;2.15;;;16.80;99.90;;;;;;5017674;28;20084;-65
2023/08/27 05:09:36;;;;;;;6.20;2.05;;;16.80;99.90;;;;;;5017356;28;20029;-66
2023/08/27 05:12:02;;;;;;;3.47;2.72;;;16.90;99.90;;;;;;5017946;28;20032;-65
2023/08/27 05:14:28;;;;;;;3.20;2.30;;;17.00;99.90;;;;;;5018139;28;20026;-65
2023/08/27 05:16:53;;;;;;;5.00;2.55;;;17.00;99.90;;;;;;5018154;28;20026;-65
2023/08/27 05:19:19;;;;;;;5.72;2.50;;;17.00;99.90;;;;;;5017980;28;20021;-65
2023/08/27 05:21:45;;;;;;;5.63;2.90;;;17.00;99.90;;;;;;5017063;28;20022;-65
2023/08/27 05:24:10;;;;;;;4.75;2.75;;;16.90;99.90;;;;;;5017067;28;20029;-65
2023/08/27 05:26:36;;;;;;;3.58;2.28;;;16.90;99.90;;;;;;5017119;28;20033;-65
2023/08/27 05:29:01;;;;;;;5.00;2.70;;;16.90;99.90;;;;;;5017694;28;20014;-65
2023/08/27 05:31:27;;;;;;;6.72;2.33;;;16.90;99.90;;;;;;5016969;28;20175;-65
2023/08/27 05:33:53;;;;;;;3.40;2.00;;;16.80;99.90;;;;;;5017709;28;20092;-65
2023/08/27 05:36:20;;;;;;;5.32;2.42;;;16.80;99.90;;;;;;5017242;28;20026;-65
2023/08/27 05:38:45;;;;;;;2.97;1.90;;;16.80;99.90;;;;;;5016737;28;20041;-65
2023/08/27 05:41:11;;;;;;;3.10;1.98;;;16.70;99.90;;;;;;5017736;28;20030;-65
2023/08/27 05:43:36;;;;;;;3.95;2.30;;;16.60;99.90;;;;;;5017553;28;20030;-65
2023/08/27 05:46:02;;;;;;;6.03;2.38;;;16.70;99.90;;;;;;5017018;28;20048;-65
2023/08/27 05:48:27;;;;;;;3.58;2.22;;;16.70;99.90;;;;;;5016976;28;20029;-65
2023/08/27 05:50:53;;;;;;;6.13;3.13;;;16.70;99.90;;;;;;5017101;28;20042;-65
2023/08/27 05:53:18;;;;;;;6.32;2.05;;;16.60;99.90;;;;;;5016435;28;20026;-65
2023/08/27 05:55:44;;;;;;;5.45;2.58;;;16.60;99.90;;;;;;5016641;28;20030;-65
2023/08/27 05:58:10;;;;;;;4.25;2.30;;;16.60;99.90;;;;;;5016474;28;20018;-65
2023/08/27 06:00:36;;;;;;;7.63;2.75;;;16.70;99.90;;;;;;5016498;28;20030;-65
2023/08/27 06:03:01;;;;;;;5.63;2.70;;;16.70;99.90;;;;;;5017254;28;20022;-65
2023/08/27 06:05:27;;;;;;;4.03;3.15;;;16.70;99.90;;;;;;5016660;28;20064;-65
2023/08/27 06:07:52;;;;;;;4.03;2.70;;;16.60;99.90;;;;;;5016589;28;20026;-65
2023/08/27 06:10:18;;;;;;;9.88;2.83;;;16.60;99.90;;;;;;5016168;28;20072;-65
2023/08/27 06:12:43;;;;;;;4.80;2.53;;;16.60;99.90;;;;;;5016569;28;20053;-65
2023/08/27 06:15:09;;;;;;;8.10;3.17;;;16.70;99.90;;;;;;5016127;28;20024;-65
2023/08/27 06:17:34;;;;;;;5.40;3.05;;;16.80;99.90;;;;;;5016514;28;20034;-65
2023/08/27 06:20:00;;;;;;;5.18;3.05;;;16.90;99.90;;;;;;5016389;28;20069;-65
2023/08/27 06:22:25;;;;;;;5.50;2.92;;;16.90;99.90;;;;;;5016188;28;20087;-65
2023/08/27 06:24:51;;;;;;;4.00;2.70;;;17.00;99.90;;;;;;5016595;28;20034;-65
2023/08/27 06:27:16;;;;;;;6.47;3.10;;;16.90;99.90;;;;;;5016169;28;20034;-65
2023/08/27 06:29:45;;;;;;;13.02;3.63;;;17.00;99.90;;;;;;5017205;28;20161;-65
2023/08/27 06:32:13;;;;;;;7.03;3.03;;;16.90;99.90;;;;;;5016144;28;20087;-65
2023/08/27 06:34:39;;;;;;;11.85;2.88;;;16.90;99.90;;;;;;5016457;28;20018;-65
2023/08/27 06:37:05;;;;;;;7.07;2.78;;;17.00;99.90;;;;;;5016486;28;20028;-65
2023/08/27 06:39:30;;;;;;;4.82;2.80;;;17.10;99.90;;;;;;5016843;28;20076;-65
2023/08/27 06:41:56;;;;;;;8.82;3.50;;;17.30;99.90;;;;;;5016194;28;20033;-65
2023/08/27 06:44:21;;;;;;;3.58;2.63;;;17.30;99.90;;;;;;5017055;28;20033;-65
2023/08/27 06:46:47;;;;;;;6.18;3.22;;;17.50;99.90;;;;;;5017001;28;20078;-65
2023/08/27 06:49:12;;;;;;;4.65;2.65;;;17.40;99.90;;;;;;5017053;28;20050;-65
2023/08/27 06:51:38;;;;;;;5.03;2.67;;;17.30;99.90;;;;;;5016161;28;20033;-65
2023/08/27 06:54:04;;;;;;;5.18;2.92;;;17.50;99.90;;;;;;5015878;28;20053;-65
2023/08/27 06:56:29;;;;;;;5.05;2.97;;;17.60;99.90;;;;;;5016345;28;20025;-65
2023/08/27 06:58:55;;;;;;;6.65;2.97;;;17.60;99.90;;;;;;5015834;28;20021;-65
2023/08/27 07:01:20;;;;;;;4.25;3.00;;;17.70;99.90;;;;;;5016313;28;20040;-65
2023/08/27 07:03:46;;;;;;;4.00;3.13;;;17.70;99.90;;;;;;5016794;28;20030;-65
2023/08/27 07:06:11;;;;;;;8.77;3.38;;;17.50;99.90;;;;;;5016420;28;20026;-65
2023/08/27 07:08:37;;;;;;;4.97;3.17;;;17.50;99.90;;;;;;5016153;28;20052;-65
2023/08/27 07:11:05;;;;;;;6.05;3.67;;;17.50;99.90;;;;;;5016968;28;20029;-65
2023/08/27 07:13:31;;;;;;;6.65;3.53;;;17.50;99.90;;;;;;5015800;28;20022;-65
2023/08/27 07:15:59;;;;;;;7.15;3.30;;;17.50;99.90;;;;;;5016160;28;20117;-65
2023/08/27 07:18:25;;;;;;;5.63;3.17;;;17.60;99.90;;;;;;5016717;28;20018;-66
2023/08/27 07:20:51;;;;;;;6.43;3.15;;;17.70;99.90;;;;;;5015767;28;20124;-66
2023/08/27 07:23:16;;;;;;;3.88;2.97;;;17.80;99.90;;;;;;5015820;28;20109;-65
2023/08/27 07:25:42;;;;;;;5.53;3.08;;;17.90;99.90;;;;;;5015758;28;20056;-66
2023/08/27 07:28:08;;;;;;;7.30;3.80;;;17.80;99.90;;;;;;5016968;28;20030;-66
2023/08/27 07:30:35;;;;;;;7.80;3.58;;;17.80;99.90;;;;;;5020066;28;20025;-65
2023/08/27 07:33:01;;;;;;;5.32;3.33;;;17.70;99.90;;;;;;5019417;28;20030;-66
2023/08/27 07:35:27;;;;;;;10.45;3.88;;;17.90;99.90;;;;;;5019369;28;20029;-66
2023/08/27 07:37:52;;;;;;;9.98;3.20;;;18.00;99.90;;;;;;5019131;28;20021;-65
2023/08/27 07:40:18;;;;;;;8.38;3.85;;;18.00;99.90;;;;;;5020162;28;20029;-66
2023/08/27 07:42:43;;;;;;;7.03;3.85;;;18.00;99.90;;;;;;5019040;28;20111;-67
2023/08/27 07:45:09;;;;;;;5.03;3.45;;;18.20;99.90;;;;;;5020064;28;20034;-67
2023/08/27 07:47:36;;;;;;;5.93;3.58;;;18.40;99.90;;;;;;5019200;28;20030;-67
2023/08/27 07:50:01;;;;;;;6.93;3.72;;;18.50;99.90;;;;;;5020078;28;20087;-67
2023/08/27 07:52:27;;;;;;;9.88;4.20;;;18.70;99.90;;;;;;5019585;28;20034;-66
2023/08/27 07:54:52;;;;;;;7.13;3.85;;;18.80;99.90;;;;;;5020000;28;20080;-67
2023/08/27 07:57:18;;;;;;;7.20;3.40;;;18.70;99.90;;;;;;5019487;28;20018;-67
2023/08/27 07:59:43;;;;;;;5.85;3.75;;;18.70;99.90;;;;;;5018620;28;20092;-65
2023/08/27 08:02:09;;;;;;;5.13;3.42;;;18.90;99.90;;;;;;5019010;28;20018;-66
2023/08/27 08:04:34;;;;;;;6.68;3.70;;;18.90;99.90;;;;;;5019334;28;20022;-66
2023/08/27 08:07:00;;;;;;;6.47;3.90;;;19.10;99.90;;;;;;5019490;28;20101;-65
2023/08/27 08:09:25;;;;;;;6.30;3.78;;;19.10;99.90;;;;;;5018400;28;20022;-65
2023/08/27 08:11:51;;;;;;;8.40;3.35;;;19.20;99.90;;;;;;5018711;28;20026;-66
2023/08/27 08:14:17;;;;;;;11.27;3.78;;;19.20;99.90;;;;;;5019148;28;20030;-66
2023/08/27 08:16:43;;;;;;;6.03;3.78;;;19.20;99.90;;;;;;5019031;28;20018;-66
2023/08/27 08:19:09;;;;;;;5.35;3.30;;;19.10;99.90;;;;;;5019100;28;20140;-66
2023/08/27 08:21:34;;;;;;;6.32;3.22;;;19.20;99.90;;;;;;5019085;28;20108;-66
2023/08/27 08:24:00;;;;;;;7.70;3.80;;;19.30;99.90;;;;;;5018218;28;20033;-66
2023/08/27 08:26:26;;;;;;;5.50;3.78;;;19.40;99.90;;;;;;5018208;28;20037;-65
2023/08/27 08:28:51;;;;;;;6.78;3.95;;;19.40;99.90;;;;;;5018091;28;20026;-65
2023/08/27 08:31:17;;;;;;;8.48;3.88;;;19.30;99.90;;;;;;5018920;28;20026;-65
2023/08/27 08:33:43;;;;;;;9.30;4.20;;;19.30;99.90;;;;;;5018444;28;20093;-65
2023/08/27 08:36:08;;;;;;;12.23;3.55;;;19.30;99.90;;;;;;5018592;28;20125;-65
2023/08/27 08:38:34;;;;;;;11.57;3.75;;;19.30;99.90;;;;;;5017759;28;20029;-65
2023/08/27 08:41:01;;;;;;;9.35;3.92;;;19.30;99.90;;;;;;5017963;28;20029;-65
2023/08/27 08:43:41;;;;;;;9.55;3.92;;;19.40;99.90;;;;;;5017799;28;20065;-65
2023/08/27 08:46:09;;;;;;;6.28;3.50;;;19.30;99.90;;;;;;5017899;28;20050;-65
2023/08/27 08:48:39;;;;;;;8.02;3.63;;;19.10;99.90;;;;;;5018759;28;20061;-65
2023/08/27 08:51:06;;;;;;;5.25;3.13;;;18.90;99.90;;;;;;5018103;28;20042;-66
2023/08/27 08:53:37;;;;;;;5.97;2.83;;;19.10;99.90;;;;;;5018799;28;20025;-67
2023/08/27 08:56:06;;;;;;;4.93;2.65;;;19.20;99.90;;;;;;5017737;28;20028;-66
2023/08/27 08:58:35;;;;;;;8.90;3.08;;;19.00;99.90;;;;;;5018711;28;20049;-67
2023/08/27 09:01:02;;;;;;;5.57;2.65;;;18.90;99.90;;;;;;5018414;28;20022;-67
2023/08/27 09:03:31;;;;;;;3.50;2.60;;;18.90;99.90;;;;;;5017334;28;20100;-67
2023/08/27 09:05:57;;;;;;;3.95;2.00;;;18.90;99.90;;;;;;5018283;28;20037;-66
2023/08/27 09:08:23;;;;;;;3.00;1.98;;;19.20;99.90;;;;;;5017431;28;20030;-66
2023/08/27 09:10:49;;;;;;;5.35;1.88;;;19.20;99.90;;;;;;5017662;28;20022;-66
2023/08/27 09:13:21;;;;;;;3.88;1.80;;;19.60;99.90;;;;;;5017148;28;20076;-67
2023/08/27 09:15:51;;;;;;;2.10;1.38;;;19.80;99.90;;;;;;5018140;28;20088;-67
2023/08/27 09:18:16;;;;;;;2.28;1.45;;;20.00;99.90;;;;;;5017299;28;20064;-66
2023/08/27 09:20:45;;;;;;;4.40;1.20;;;20.30;99.90;;;;;;5017268;28;20026;-67
2023/08/27 09:23:13;;;;;;;2.97;1.30;;;20.30;99.90;;;;;;5017240;28;20029;-67
2023/08/27 09:25:39;;;;;;;2.88;1.33;;;20.50;99.90;;;;;;5018219;28;20108;-66
2023/08/27 09:28:05;;;;;;;3.88;1.60;;;20.50;99.90;;;;;;5017985;28;20060;-67
2023/08/27 09:30:31;;;;;;;4.68;1.23;;;20.40;99.90;;;;;;5016894;28;20034;-66
2023/08/27 09:32:57;;;;;;;10.90;1.70;;;20.40;99.90;;;;;;5016969;28;20121;-66
2023/08/27 09:35:23;;;;;;;1.42;1.20;;;20.50;99.90;;;;;;5017788;28;20029;-66
2023/08/27 09:37:49;;;;;;;2.92;1.50;;;20.40;99.90;;;;;;5016980;28;20022;-66
2023/08/27 09:40:16;;;;;;;2.78;1.35;;;20.40;99.90;;;;;;5016787;28;20026;-67
2023/08/27 09:42:43;;;;;;;2.40;1.75;;;20.50;99.90;;;;;;5017905;28;20033;-66
2023/08/27 09:45:08;;;;;;;2.78;1.40;;;20.60;99.90;;;;;;5016938;28;20022;-67
2023/08/27 09:47:39;;;;;;;3.88;1.95;;;20.70;99.90;;;;;;5016835;28;20109;-67
2023/08/27 09:50:15;;;;;;;1.63;1.45;;;20.60;99.90;;;;;;5016350;28;20053;-67
2023/08/27 09:52:41;;;;;;;4.65;1.48;;;20.40;99.90;;;;;;5017546;28;20022;-67
2023/08/27 09:55:14;;;;;;;1.95;1.30;;;20.50;99.90;;;;;;5017413;28;20084;-67
2023/08/27 09:57:47;;;;;;;2.20;1.73;;;20.50;99.90;;;;;;5017581;28;20018;-67
2023/08/27 10:00:14;;;;;;;4.05;1.80;;;20.50;99.90;;;;;;5016452;28;20045;-67
2023/08/27 10:02:43;;;;;;;2.80;1.52;;;20.60;99.90;;;;;;5016558;28;20030;-67
2023/08/27 10:05:08;;;;;;;1.80;1.33;;;20.90;99.90;;;;;;5016396;28;20057;-67
2023/08/27 10:07:34;;;;;;;2.35;1.60;;;20.80;99.90;;;;;;5017597;28;20029;-67
2023/08/27 10:10:00;;;;;;;3.60;1.55;;;20.90;99.90;;;;;;5016784;28;20068;-67
2023/08/27 10:12:27;;;;;;;2.15;1.42;;;21.00;99.90;;;;;;5017153;28;20030;-66
2023/08/27 10:14:52;;;;;;;2.05;1.20;;;20.90;99.90;;;;;;5016478;28;20048;-67
2023/08/27 10:17:18;;;;;;;3.17;1.23;;;20.80;99.90;;;;;;5016223;28;20021;-67
2023/08/27 10:19:43;;;;;;;0.80;0.80;;;20.80;99.90;;;;;;5017253;28;20117;-67
2023/08/27 10:22:11;;;;;;;2.58;0.80;;;21.10;99.90;;;;;;5016290;28;20057;-66
2023/08/27 10:24:38;;;;;;;1.65;1.00;;;21.40;99.90;;;;;;5017296;28;20028;-66
2023/08/27 10:27:05;;;;;;;1.20;1.02;;;21.80;99.90;;;;;;5016316;28;20022;-66
2023/08/27 10:29:30;;;;;;;4.22;0.88;;;22.00;99.90;;;;;;5016430;28;20068;-67
2023/08/27 10:31:57;;;;;;;3.78;1.30;;;22.20;99.90;;;;;;5016635;28;20033;-67
2023/08/27 10:34:23;;;;;;;1.17;1.02;;;22.30;99.90;;;;;;5016393;28;20040;-67
2023/08/27 10:36:51;;;;;;;2.40;1.00;;;22.20;99.90;;;;;;5016184;28;20084;-67
2023/08/27 10:39:25;;;;;;;2.25;0.90;;;22.20;99.90;;;;;;5016172;28;20036;-67
2023/08/27 10:41:51;;;;;;;1.30;0.95;;;22.50;99.90;;;;;;5016966;28;20022;-67
2023/08/27 10:44:20;;;;;;;1.52;1.20;;;22.80;99.90;;;;;;5016089;28;20018;-67
2023/08/27 10:47:14;;;;;;;0.98;0.80;;;22.80;99.90;;;;;;5016333;28;20021;-67
2023/08/27 10:49:44;;;;;;;1.15;1.05;;;23.20;99.90;;;;;;5016139;28;20045;-67
2023/08/27 10:52:22;;;;;;;2.17;0.63;;;23.70;99.90;;;;;;5015972;28;20018;-67
2023/08/27 10:54:57;;;;;;;1.35;0.75;;;24.30;99.90;;;;;;5017124;28;20057;-67
2023/08/27 10:57:23;;;;;;;0.85;0.75;;;24.40;99.90;;;;;;5016801;28;20026;-67
2023/08/27 10:59:51;;;;;;;2.92;0.70;;;24.50;99.90;;;;;;5016027;28;20129;-67
2023/08/27 11:02:17;;;;;;;0.57;0.52;;;24.30;99.90;;;;;;5017809;28;20053;-67
2023/08/27 11:04:48;;;;;;;0.60;0.60;;;24.80;99.90;;;;;;5020640;28;20029;-67
2023/08/27 11:07:19;;;;;;;0.57;0.50;;;24.70;99.90;;;;;;5020313;28;20022;-67
2023/08/27 11:09:47;;;;;;;1.55;0.80;;;24.90;99.90;;;;;;5020484;28;20097;-67
2023/08/27 11:12:27;;;;;;;1.75;0.80;;;25.30;99.90;;;;;;5020752;28;20100;-67
2023/08/27 11:14:54;;;;;;;0.98;0.60;;;25.30;99.90;;;;;;5020369;28;20029;-67
2023/08/27 11:17:26;;;;;;;0.80;0.73;;;25.30;99.90;;;;;;5019758;28;20124;-67
2023/08/27 11:19:53;;;;;;;1.13;0.70;;;25.30;99.90;;;;;;5020315;28;20022;-67
2023/08/27 11:22:19;;;;;;;1.20;0.77;;;25.30;99.90;;;;;;5019354;28;20029;-68
2023/08/27 11:24:52;;;;;;;1.23;0.80;;;25.10;99.90;;;;;;5019390;28;20018;-67
2023/08/27 11:27:23;;;;;;;1.08;0.80;;;24.60;99.90;;;;;;5019409;28;20022;-67
2023/08/27 11:29:51;;;;;;;0.70;0.57;;;24.10;99.90;;;;;;5019290;28;20026;-67
2023/08/27 11:32:17;;;;;;;1.40;0.77;;;23.70;99.90;;;;;;5019174;28;20026;-67
2023/08/27 11:34:51;;;;;;;0.90;0.73;;;23.50;99.90;;;;;;5019217;28;20083;-67
2023/08/27 11:37:17;;;;;;;3.42;0.90;;;23.50;99.90;;;;;;5019188;28;20044;-67
2023/08/27 11:39:43;;;;;;;1.88;0.93;;;23.30;99.90;;;;;;5019812;28;20033;-67
2023/08/27 11:42:14;;;;;;;1.92;0.90;;;23.30;99.90;;;;;;5019068;28;20026;-67
2023/08/27 11:44:50;;;;;;;3.17;1.20;;;23.10;99.90;;;;;;5019849;28;20022;-66
2023/08/27 11:47:16;;;;;;;1.80;0.70;;;22.80;99.90;;;;;;5019144;28;20096;-66
2023/08/27 11:49:41;;;;;;;0.82;0.73;;;22.80;99.90;;;;;;5019227;28;20034;-66
2023/08/27 11:52:07;;;;;;;0.90;0.80;;;22.80;99.90;;;;;;5019731;28;20026;-66
2023/08/27 11:54:34;;;;;;;1.63;1.15;;;22.70;99.90;;;;;;5019637;28;20037;-66
2023/08/27 11:57:02;;;;;;;1.02;0.70;;;22.60;99.90;;;;;;5019717;28;20076;-67
2023/08/27 11:59:28;;;;;;;2.95;0.65;;;22.60;99.90;;;;;;5019668;28;20033;-67
2023/08/27 12:01:57;;;;;;;3.60;0.70;;;22.60;99.90;;;;;;5019401;28;20029;-67
2023/08/27 12:04:25;;;;;;;1.50;0.95;;;22.70;99.90;;;;;;5018660;28;20025;-67
2023/08/27 12:07:01;;;;;;;1.48;1.08;;;22.80;99.90;;;;;;5018959;28;20022;-67
2023/08/27 12:09:29;;;;;;;1.20;0.73;;;22.70;99.90;;;;;;5019288;28;20026;-67
2023/08/27 12:11:59;;;;;;;2.85;0.70;;;22.80;99.90;;;;;;5018553;28;20026;-66
2023/08/27 12:14:26;;;;;;;0.98;0.50;;;22.70;99.90;;;;;;5017533;28;20029;-67
2023/08/27 12:16:53;;;;;;;1.08;0.60;;;22.60;99.90;;;;;;5019307;28;20108;-66
2023/08/27 12:19:20;;;;;;;2.35;1.00;;;22.50;99.90;;;;;;5018780;28;20021;-66
2023/08/27 12:21:51;;;;;;;1.55;0.80;;;22.40;99.90;;;;;;5019188;28;20028;-68
2023/08/27 12:24:36;;;;;;;1.98;1.13;;;22.40;99.90;;;;;;5019181;28;20030;-67
2023/08/27 12:27:03;;;;;;;0.65;0.63;;;22.40;99.90;;;;;;5019386;28;20030;-67
2023/08/27 12:29:31;;;;;;;2.75;0.70;;;22.20;99.90;;;;;;5019181;28;20022;-67
2023/08/27 12:31:58;;;;;;;1.75;0.73;;;22.10;99.90;;;;;;5018032;28;20022;-67
2023/08/27 12:34:43;;;;;;;1.98;0.60;;;22.20;99.90;;;;;;5018815;28;20033;-67
2023/08/27 12:37:10;;;;;;;1.42;0.88;;;22.10;99.90;;;;;;5018888;28;20026;-67
2023/08/27 12:39:37;;;;;;;2.80;1.17;;;22.20;99.90;;;;;;5018869;28;20084;-67
2023/08/27 12:42:03;;;;;;;1.38;1.02;;;22.40;99.90;;;;;;5017933;28;20018;-67
2023/08/27 12:44:29;;;;;;;2.33;1.10;;;22.40;99.90;;;;;;5018646;28;20026;-67